createdAt,value
2024-01-31T00:01:43.852Z,15.43
2024-01-31T00:04:12.735Z,11.80
2024-01-31T00:06:43.351Z,16.17
2024-01-31T00:09:11.348Z,11.37
2024-01-31T00:11:40.034Z,10.97
2024-01-31T00:14:09.406Z,14.73
2024-01-31T00:16:37.478Z,11.67
2024-01-31T00:19:06.104Z,10.00
2024-01-31T00:21:34.690Z,14.13
2024-01-31T00:24:04.091Z,10.90
2024-01-31T00:26:32.371Z,13.70
2024-01-31T00:29:01.406Z,10.90
2024-01-31T00:31:29.499Z,10.60
2024-01-31T00:33:57.584Z,10.80
2024-01-31T00:36:26.157Z,11.90
2024-01-31T00:38:54.349Z,12.50
2024-01-31T00:41:23.784Z,14.10
2024-01-31T00:43:52.282Z,13.77
2024-01-31T00:46:20.931Z,11.80
2024-01-31T00:48:50.129Z,14.37
2024-01-31T00:51:18.167Z,13.00
2024-01-31T00:53:46.233Z,14.00
2024-01-31T00:56:14.573Z,13.13
2024-01-31T00:58:44.037Z,14.00
2024-01-31T01:01:12.153Z,13.17
2024-01-31T01:03:40.332Z,14.53
2024-01-31T01:06:09.139Z,12.90
2024-01-31T01:08:37.822Z,14.80
2024-01-31T01:11:06.450Z,10.20
2024-01-31T01:13:35.014Z,13.37
2024-01-31T01:16:04.768Z,10.90
2024-01-31T01:18:33.304Z,11.27
2024-01-31T01:21:01.328Z,14.60
2024-01-31T01:23:29.774Z,12.10
2024-01-31T01:25:57.804Z,22.13
2024-01-31T01:28:26.036Z,12.60
2024-01-31T01:30:54.560Z,14.40
2024-01-31T01:33:24.480Z,16.10
2024-01-31T01:35:53.339Z,17.43
2024-01-31T01:38:21.331Z,11.50
2024-01-31T01:40:50.155Z,12.17
2024-01-31T01:43:19.217Z,13.03
2024-01-31T01:45:48.040Z,16.00
2024-01-31T01:48:17.861Z,14.30
2024-01-31T01:50:48.521Z,15.83
2024-01-31T01:53:16.981Z,14.97
2024-01-31T01:55:46.468Z,14.73
2024-01-31T01:58:14.903Z,14.93
2024-01-31T02:00:45.426Z,11.87
2024-01-31T02:03:14.132Z,15.57
2024-01-31T02:05:43.199Z,16.83
2024-01-31T02:08:13.507Z,13.33
2024-01-31T02:10:41.822Z,11.80
2024-01-31T02:13:09.994Z,13.57
2024-01-31T02:15:38.529Z,14.63
2024-01-31T02:18:07.235Z,14.27
2024-01-31T02:20:37.593Z,10.97
2024-01-31T02:23:06.964Z,12.07
2024-01-31T02:25:35.506Z,11.53
2024-01-31T02:28:03.593Z,14.60
2024-01-31T02:30:31.216Z,12.97
2024-01-31T02:32:59.683Z,13.60
2024-01-31T02:35:27.860Z,13.33
2024-01-31T02:37:59.317Z,11.00
2024-01-31T02:40:30.217Z,11.87
2024-01-31T02:42:59.110Z,11.27
2024-01-31T02:45:28.665Z,12.10
2024-01-31T02:47:57.460Z,13.17
2024-01-31T02:50:26.655Z,14.63
2024-01-31T02:52:55.789Z,10.77
2024-01-31T02:55:23.924Z,14.33
2024-01-31T02:57:53.789Z,11.87
2024-01-31T03:00:22.339Z,14.20
2024-01-31T03:02:50.355Z,13.60
2024-01-31T03:05:18.994Z,13.83
2024-01-31T03:07:47.246Z,11.03
2024-01-31T03:10:16.561Z,12.77
2024-01-31T03:12:44.651Z,13.63
2024-01-31T03:15:14.651Z,15.60
2024-01-31T03:17:42.753Z,11.23
2024-01-31T03:20:13.520Z,10.27
2024-01-31T03:22:41.648Z,13.67
2024-01-31T03:25:10.551Z,12.40
2024-01-31T03:27:39.311Z,12.27
2024-01-31T03:30:10.590Z,10.23
2024-01-31T03:32:40.270Z,11.47
2024-01-31T03:35:09.842Z,13.13
2024-01-31T03:37:38.683Z,11.50
2024-01-31T03:40:07.847Z,14.07
2024-01-31T03:42:36.483Z,9.70
2024-01-31T03:45:05.547Z,12.63
2024-01-31T03:47:35.401Z,14.40
2024-01-31T03:50:06.934Z,13.50
2024-01-31T03:52:37.592Z,13.80
2024-01-31T03:55:07.554Z,11.43
2024-01-31T03:57:35.694Z,13.73
2024-01-31T04:00:07.677Z,14.40
2024-01-31T04:02:36.217Z,12.87
2024-01-31T04:05:06.318Z,13.10
2024-01-31T04:07:35.304Z,12.20
2024-01-31T04:10:04.781Z,12.53
2024-01-31T04:12:34.075Z,12.83
2024-01-31T04:15:02.178Z,13.33
2024-01-31T04:17:30.237Z,10.33
2024-01-31T04:19:58.868Z,11.93
2024-01-31T04:22:28.512Z,13.37
2024-01-31T04:24:57.075Z,15.50
2024-01-31T04:27:25.100Z,12.63
2024-01-31T04:29:53.621Z,15.27
2024-01-31T04:32:21.672Z,10.07
2024-01-31T04:34:50.387Z,13.30
2024-01-31T04:37:18.640Z,14.47
2024-01-31T04:39:52.251Z,13.20
2024-01-31T04:42:20.518Z,13.30
2024-01-31T04:44:49.048Z,12.40
2024-01-31T04:47:18.101Z,16.60
2024-01-31T04:49:46.967Z,16.33
2024-01-31T04:52:15.218Z,11.20
2024-01-31T04:54:43.243Z,12.43
2024-01-31T04:57:13.111Z,12.20
2024-01-31T04:59:41.617Z,12.50
2024-01-31T05:02:10.764Z,9.83
2024-01-31T05:04:39.643Z,13.90
2024-01-31T05:07:08.821Z,13.03
2024-01-31T05:09:36.952Z,14.70
2024-01-31T05:12:05.597Z,13.17
2024-01-31T05:14:36.228Z,13.67
2024-01-31T05:17:05.073Z,12.90
2024-01-31T05:19:33.303Z,10.93
2024-01-31T05:22:01.998Z,12.90
2024-01-31T05:24:30.538Z,10.37
2024-01-31T05:27:04.459Z,13.43
2024-01-31T05:29:33.197Z,11.00
2024-01-31T05:32:02.523Z,13.33
2024-01-31T05:34:30.677Z,13.77
2024-01-31T05:36:59.291Z,12.90
2024-01-31T05:39:27.902Z,11.00
2024-01-31T05:41:56.415Z,11.13
2024-01-31T05:44:24.424Z,13.60
2024-01-31T05:46:52.448Z,15.40
2024-01-31T05:49:22.503Z,13.20
2024-01-31T05:51:52.857Z,11.67
2024-01-31T05:54:20.978Z,11.57
2024-01-31T05:56:54.924Z,14.00
2024-01-31T05:59:26.594Z,10.33
2024-01-31T06:01:55.020Z,12.17
2024-01-31T06:04:24.584Z,13.67
2024-01-31T06:06:52.905Z,14.13
2024-01-31T06:09:21.464Z,12.70
2024-01-31T06:11:50.177Z,13.13
2024-01-31T06:14:18.764Z,11.47
2024-01-31T06:16:47.189Z,11.83
2024-01-31T06:19:15.737Z,11.00
2024-01-31T06:21:45.120Z,12.60
2024-01-31T06:24:13.158Z,15.73
2024-01-31T06:26:42.457Z,14.30
2024-01-31T06:29:18.379Z,12.67
2024-01-31T06:31:49.293Z,10.63
2024-01-31T06:34:18.386Z,11.00
2024-01-31T06:36:48.030Z,11.90
2024-01-31T06:39:16.547Z,10.30
2024-01-31T06:41:44.561Z,11.03
2024-01-31T06:44:12.610Z,12.77
2024-01-31T06:46:41.183Z,13.83
2024-01-31T06:49:09.508Z,12.33
2024-01-31T06:51:37.620Z,12.97
2024-01-31T06:54:07.570Z,14.77
2024-01-31T06:56:36.760Z,11.50
2024-01-31T06:59:04.990Z,13.03
2024-01-31T07:01:33.633Z,13.60
2024-01-31T07:04:01.918Z,15.60
2024-01-31T07:06:30.147Z,14.00
2024-01-31T07:08:58.702Z,12.80
2024-01-31T07:11:28.141Z,12.23
2024-01-31T07:13:56.169Z,13.13
2024-01-31T07:16:25.290Z,15.77
2024-01-31T07:18:53.465Z,17.03
2024-01-31T07:21:27.166Z,13.67
2024-01-31T07:23:55.647Z,17.97
2024-01-31T07:26:24.630Z,13.90
2024-01-31T07:28:54.804Z,11.47
2024-01-31T07:31:22.851Z,14.50
2024-01-31T07:33:51.064Z,14.90
2024-01-31T07:36:19.675Z,11.83
2024-01-31T07:38:48.586Z,11.20
2024-01-31T07:41:16.730Z,11.83
2024-01-31T07:43:45.487Z,11.33
2024-01-31T07:46:14.891Z,13.07
2024-01-31T07:48:43.441Z,10.33
2024-01-31T07:51:12.025Z,10.40
2024-01-31T07:53:40.197Z,11.37
2024-01-31T07:56:08.616Z,11.97
2024-01-31T07:58:37.266Z,10.93
2024-01-31T08:01:06.314Z,12.70
2024-01-31T08:03:40.446Z,11.20
2024-01-31T08:06:08.640Z,11.43
2024-01-31T08:08:38.958Z,12.87
2024-01-31T08:11:07.832Z,14.50
2024-01-31T08:13:35.934Z,14.03
2024-01-31T08:16:04.697Z,14.47
2024-01-31T08:18:32.762Z,10.87
2024-01-31T08:21:02.112Z,11.73
2024-01-31T08:23:30.615Z,12.30
2024-01-31T08:25:58.729Z,17.60
2024-01-31T08:28:27.355Z,11.50
2024-01-31T08:30:55.378Z,20.37
2024-01-31T08:33:23.477Z,14.73
2024-01-31T08:35:52.022Z,17.67
2024-01-31T08:38:21.370Z,13.13
2024-01-31T08:40:49.434Z,18.30
2024-01-31T08:43:17.960Z,17.13
2024-01-31T08:45:46.086Z,16.53
2024-01-31T08:48:14.242Z,14.83
2024-01-31T08:50:42.853Z,18.93
2024-01-31T08:53:10.903Z,18.57
2024-01-31T08:55:41.156Z,19.73
2024-01-31T08:58:09.833Z,16.87
2024-01-31T09:00:37.958Z,16.93
2024-01-31T09:03:06.320Z,19.77
2024-01-31T09:05:35.520Z,15.03
2024-01-31T09:08:04.054Z,15.70
2024-01-31T09:10:32.147Z,17.13
2024-01-31T09:13:02.013Z,25.60
2024-01-31T09:15:30.081Z,17.57
2024-01-31T09:17:58.183Z,15.17
2024-01-31T09:20:26.738Z,15.20
2024-01-31T09:22:54.866Z,17.33
2024-01-31T09:25:22.948Z,15.53
2024-01-31T09:27:51.421Z,21.97
2024-01-31T09:30:21.060Z,17.10
2024-01-31T09:32:49.106Z,19.83
2024-01-31T09:35:17.811Z,17.43
2024-01-31T09:37:45.970Z,17.43
2024-01-31T09:40:17.508Z,13.53
2024-01-31T09:42:45.862Z,18.03
2024-01-31T09:45:14.142Z,16.23
2024-01-31T09:47:47.014Z,15.07
2024-01-31T09:50:15.289Z,19.17
2024-01-31T09:52:44.269Z,22.30
2024-01-31T09:55:13.799Z,17.07
2024-01-31T09:57:43.760Z,17.40
2024-01-31T10:00:12.169Z,19.83
2024-01-31T10:02:42.158Z,16.97
2024-01-31T10:05:11.850Z,16.00
2024-01-31T10:07:41.961Z,15.97
2024-01-31T10:10:11.763Z,16.70
2024-01-31T10:12:40.795Z,19.17
2024-01-31T10:15:10.482Z,18.13
2024-01-31T10:17:39.610Z,18.43
2024-01-31T10:20:13.149Z,19.20
2024-01-31T10:22:43.776Z,18.00
2024-01-31T10:25:17.230Z,20.67
2024-01-31T10:27:47.027Z,21.17
2024-01-31T10:30:16.811Z,17.03
2024-01-31T10:32:47.036Z,20.00
2024-01-31T10:37:56.221Z,20.33
2024-01-31T10:40:30.913Z,19.87
2024-01-31T10:43:00.287Z,19.90
2024-01-31T10:45:29.132Z,19.30
2024-01-31T10:47:57.933Z,16.90
2024-01-31T10:50:26.202Z,19.47
2024-01-31T10:52:57.181Z,18.67
2024-01-31T10:55:27.255Z,19.03
2024-01-31T10:57:56.839Z,21.23
2024-01-31T11:00:29.709Z,14.10
2024-01-31T11:02:59.546Z,14.60
2024-01-31T11:05:29.209Z,18.73
2024-01-31T11:08:01.326Z,15.30
2024-01-31T11:10:29.752Z,17.83
2024-01-31T11:13:03.510Z,15.90
2024-01-31T11:15:32.642Z,22.27
2024-01-31T11:18:10.151Z,18.07
2024-01-31T11:20:40.624Z,17.17
2024-01-31T11:23:15.728Z,13.60
2024-01-31T11:25:44.098Z,19.73
2024-01-31T11:28:13.604Z,14.50
2024-01-31T11:30:42.546Z,14.20
2024-01-31T11:33:10.934Z,19.50
2024-01-31T11:35:39.545Z,15.20
2024-01-31T11:38:10.105Z,17.03
2024-01-31T11:40:38.572Z,20.00
2024-01-31T11:43:07.058Z,16.43
2024-01-31T11:45:35.674Z,15.90
2024-01-31T11:48:04.541Z,18.47
2024-01-31T11:50:32.922Z,22.70
2024-01-31T11:53:01.867Z,17.93
2024-01-31T11:55:32.208Z,20.13
2024-01-31T11:58:00.267Z,16.53
2024-01-31T12:00:28.048Z,16.23
2024-01-31T12:02:56.739Z,18.40
2024-01-31T12:05:25.114Z,18.87
2024-01-31T12:07:58.367Z,17.33
2024-01-31T12:10:27.743Z,17.63
2024-01-31T12:12:59.687Z,19.10
2024-01-31T12:15:28.620Z,16.40
2024-01-31T12:17:56.826Z,19.53
2024-01-31T12:20:27.521Z,23.30
2024-01-31T12:22:55.678Z,16.70
2024-01-31T12:25:25.348Z,14.30
2024-01-31T12:27:54.073Z,19.47
2024-01-31T12:30:23.611Z,19.07
2024-01-31T12:32:51.800Z,17.67
2024-01-31T12:35:20.573Z,20.27
2024-01-31T12:37:49.474Z,17.60
2024-01-31T12:40:17.606Z,19.17
2024-01-31T12:42:46.528Z,16.63
2024-01-31T12:45:15.425Z,18.73
2024-01-31T12:47:46.903Z,18.27
2024-01-31T12:50:17.217Z,17.60
2024-01-31T12:52:45.873Z,18.93
2024-01-31T12:55:14.526Z,17.53
2024-01-31T12:57:42.964Z,20.30
2024-01-31T13:00:11.750Z,19.43
2024-01-31T13:02:39.892Z,15.33
2024-01-31T13:05:10.693Z,18.60
2024-01-31T13:07:39.072Z,16.07
2024-01-31T13:10:09.918Z,17.40
2024-01-31T13:12:38.471Z,23.07
2024-01-31T13:15:07.612Z,20.93
2024-01-31T13:17:38.702Z,18.60
2024-01-31T13:20:11.423Z,17.17
2024-01-31T13:22:39.567Z,16.80
2024-01-31T13:25:08.825Z,15.83
2024-01-31T13:27:37.319Z,14.90
2024-01-31T13:30:08.777Z,15.90
2024-01-31T13:32:41.574Z,15.67
2024-01-31T13:35:11.484Z,16.20
2024-01-31T13:37:39.965Z,15.53
2024-01-31T13:40:11.221Z,16.47
2024-01-31T13:42:40.156Z,16.33
2024-01-31T13:45:09.641Z,15.50
2024-01-31T13:47:38.457Z,16.03
2024-01-31T13:50:08.268Z,14.87
2024-01-31T13:52:38.753Z,25.83
2024-01-31T13:55:08.476Z,16.07
2024-01-31T13:57:36.997Z,16.00
2024-01-31T14:00:07.694Z,19.23
2024-01-31T14:02:37.596Z,21.00
2024-01-31T14:05:06.098Z,16.73
2024-01-31T14:07:34.658Z,17.37
2024-01-31T14:10:04.826Z,16.60
2024-01-31T14:12:32.939Z,16.30
2024-01-31T14:15:01.661Z,17.80
2024-01-31T14:17:30.400Z,18.57
2024-01-31T14:19:58.534Z,15.17
2024-01-31T14:22:35.716Z,19.50
2024-01-31T14:25:16.736Z,23.60
2024-01-31T14:27:44.857Z,18.93
2024-01-31T14:30:13.628Z,18.60
2024-01-31T14:32:42.054Z,16.77
2024-01-31T14:35:10.501Z,21.37
2024-01-31T14:37:38.592Z,16.97
2024-01-31T14:40:08.380Z,18.03
2024-01-31T14:42:38.193Z,19.87
2024-01-31T14:45:10.466Z,18.20
2024-01-31T14:47:38.732Z,28.10
2024-01-31T14:50:07.883Z,16.13
2024-01-31T14:52:36.285Z,22.90
2024-01-31T14:55:05.211Z,20.63
2024-01-31T14:57:33.282Z,18.43
2024-01-31T15:00:04.092Z,23.43
2024-01-31T15:02:32.352Z,19.07
2024-01-31T15:05:00.529Z,23.20
2024-01-31T15:07:30.779Z,15.80
2024-01-31T15:10:00.915Z,18.90
2024-01-31T15:12:29.212Z,20.70
2024-01-31T15:14:57.370Z,22.70
2024-01-31T15:17:26.840Z,17.20
2024-01-31T15:19:55.291Z,20.70
2024-01-31T15:22:23.500Z,21.37
2024-01-31T15:24:51.485Z,20.23
2024-01-31T15:27:20.142Z,22.07
2024-01-31T15:29:48.320Z,19.43
2024-01-31T15:32:16.748Z,19.10
2024-01-31T15:34:46.540Z,23.40
2024-01-31T15:37:14.604Z,20.70
2024-01-31T15:39:42.657Z,22.93
2024-01-31T15:42:10.904Z,25.80
2024-01-31T15:44:39.384Z,21.13
2024-01-31T15:47:12.134Z,29.33
2024-01-31T15:49:40.286Z,24.30
2024-01-31T15:52:10.013Z,21.53
2024-01-31T15:54:38.439Z,22.30
2024-01-31T15:57:06.760Z,19.00
2024-01-31T15:59:35.459Z,20.73
2024-01-31T16:02:03.934Z,22.50
2024-01-31T16:04:32.493Z,24.50
2024-01-31T16:07:02.873Z,21.00
2024-01-31T16:09:32.763Z,18.93
2024-01-31T16:12:01.229Z,27.40
2024-01-31T16:14:29.818Z,25.43
2024-01-31T16:16:58.210Z,23.87
2024-01-31T16:19:26.466Z,30.07
2024-01-31T16:21:54.579Z,24.00
2024-01-31T16:24:23.040Z,22.13
2024-01-31T16:26:52.443Z,22.83
2024-01-31T16:29:20.503Z,24.50
2024-01-31T16:31:48.960Z,25.13
2024-01-31T16:34:21.966Z,24.23
2024-01-31T16:36:52.733Z,29.50
2024-01-31T16:39:20.920Z,20.73
2024-01-31T16:41:50.009Z,28.83
2024-01-31T16:44:19.670Z,22.53
2024-01-31T16:46:47.758Z,23.03
2024-01-31T16:49:15.878Z,19.80
2024-01-31T16:51:46.586Z,23.87
2024-01-31T16:54:15.116Z,23.57
2024-01-31T16:56:43.438Z,22.23
2024-01-31T16:59:11.631Z,21.80
2024-01-31T17:01:44.788Z,21.80
2024-01-31T17:04:13.207Z,22.20
2024-01-31T17:06:41.307Z,22.53
2024-01-31T17:09:09.489Z,23.97
2024-01-31T17:11:37.949Z,21.97
2024-01-31T17:14:06.165Z,26.60
2024-01-31T17:16:34.256Z,22.87
2024-01-31T17:19:05.781Z,20.70
2024-01-31T17:21:33.877Z,25.70
2024-01-31T17:24:02.050Z,22.13
2024-01-31T17:26:30.523Z,21.57
2024-01-31T17:29:00.337Z,20.97
2024-01-31T17:31:28.430Z,24.33
2024-01-31T17:33:57.955Z,25.53
2024-01-31T17:36:27.608Z,24.83
2024-01-31T17:38:56.018Z,23.27
2024-01-31T17:41:24.375Z,25.77
2024-01-31T17:43:52.479Z,22.40
2024-01-31T17:46:21.873Z,25.87
2024-01-31T17:48:50.486Z,29.50
2024-01-31T17:51:18.901Z,23.47
2024-01-31T17:53:48.573Z,25.30
2024-01-31T17:56:19.402Z,27.73
2024-01-31T17:58:47.916Z,26.43
2024-01-31T18:01:16.282Z,26.33
2024-01-31T18:03:44.515Z,24.97
2024-01-31T18:06:13.564Z,21.53
2024-01-31T18:08:41.748Z,22.33
2024-01-31T18:11:12.019Z,26.80
2024-01-31T18:13:40.915Z,23.37
2024-01-31T18:16:09.465Z,21.77
2024-01-31T18:18:37.595Z,25.77
2024-01-31T18:21:06.510Z,22.30
2024-01-31T18:23:34.847Z,24.27
2024-01-31T18:26:03.131Z,26.43
2024-01-31T18:28:32.871Z,23.80
2024-01-31T18:31:00.895Z,24.23
2024-01-31T18:33:29.101Z,23.93
2024-01-31T18:35:58.106Z,26.37
2024-01-31T18:38:26.452Z,28.37
2024-01-31T18:40:56.299Z,25.33
2024-01-31T18:43:25.136Z,23.83
2024-01-31T18:45:54.504Z,22.40
2024-01-31T18:48:22.840Z,22.17
2024-01-31T18:50:51.319Z,24.37
2024-01-31T18:53:19.431Z,27.87
2024-01-31T18:55:47.499Z,24.63
2024-01-31T18:58:16.004Z,20.10
2024-01-31T19:00:44.152Z,20.17
2024-01-31T19:03:14.602Z,22.30
2024-01-31T19:05:43.092Z,26.53
2024-01-31T19:08:11.143Z,25.63
2024-01-31T19:10:39.557Z,25.47
2024-01-31T19:13:07.911Z,18.13
2024-01-31T19:15:38.241Z,19.67
2024-01-31T19:18:09.287Z,24.07
2024-01-31T19:20:38.998Z,17.93
2024-01-31T19:23:07.338Z,17.23
2024-01-31T19:25:35.662Z,14.37
2024-01-31T19:28:04.208Z,15.00
2024-01-31T19:30:32.392Z,14.63
2024-01-31T19:33:00.988Z,15.57
2024-01-31T19:35:29.324Z,12.80
2024-01-31T19:37:58.736Z,18.63
2024-01-31T19:40:27.076Z,16.73
2024-01-31T19:42:55.163Z,13.50
2024-01-31T19:45:23.393Z,11.57
2024-01-31T19:47:51.789Z,15.53
2024-01-31T19:50:21.010Z,12.33
2024-01-31T19:52:49.110Z,14.50
2024-01-31T19:55:18.923Z,13.40
2024-01-31T19:57:47.358Z,11.13
2024-01-31T20:00:16.553Z,13.87
2024-01-31T20:02:47.024Z,15.93
2024-01-31T20:05:15.289Z,19.93
2024-01-31T20:07:43.436Z,14.27
2024-01-31T20:10:12.003Z,15.47
2024-01-31T20:12:41.341Z,14.00
2024-01-31T20:15:10.272Z,13.47
2024-01-31T20:17:38.689Z,18.37
2024-01-31T20:20:08.113Z,14.83
2024-01-31T20:22:38.341Z,21.90
2024-01-31T20:25:07.438Z,15.07
2024-01-31T20:27:35.599Z,13.27
2024-01-31T20:30:05.970Z,11.50
2024-01-31T20:32:34.091Z,11.23
2024-01-31T20:35:02.273Z,12.53
2024-01-31T20:37:30.581Z,9.57
2024-01-31T20:39:58.614Z,11.03
2024-01-31T20:42:26.693Z,9.10
2024-01-31T20:44:55.025Z,7.07
2024-01-31T20:47:24.425Z,8.90
2024-01-31T20:49:52.695Z,7.40
2024-01-31T20:52:21.001Z,5.00
2024-01-31T20:54:49.044Z,7.87
2024-01-31T20:57:17.118Z,5.93
2024-01-31T20:59:45.653Z,8.23
2024-01-31T21:02:13.742Z,6.40
2024-01-31T21:04:43.109Z,7.10
2024-01-31T21:07:11.493Z,7.83
2024-01-31T21:09:39.879Z,7.97
2024-01-31T21:12:09.193Z,6.90
2024-01-31T21:14:37.872Z,7.60
2024-01-31T21:17:06.202Z,7.67
2024-01-31T21:19:34.363Z,9.07
2024-01-31T21:22:04.249Z,8.17
2024-01-31T21:24:33.775Z,5.40
2024-01-31T21:27:02.169Z,8.93
2024-01-31T21:29:30.510Z,9.43
2024-01-31T21:31:58.540Z,5.80
2024-01-31T21:34:26.845Z,7.60
2024-01-31T21:36:55.519Z,6.30
2024-01-31T21:39:25.336Z,6.70
2024-01-31T21:41:53.415Z,10.60
2024-01-31T21:44:22.096Z,8.67
2024-01-31T21:46:50.228Z,5.90
2024-01-31T21:49:18.384Z,8.60
2024-01-31T21:51:46.737Z,5.10
2024-01-31T21:54:15.293Z,5.90
2024-01-31T21:56:44.733Z,7.17
2024-01-31T21:59:13.105Z,4.47
2024-01-31T22:01:41.805Z,7.17
2024-01-31T22:04:15.603Z,7.30
2024-01-31T22:06:47.964Z,8.17
2024-01-31T22:09:15.988Z,8.73
2024-01-31T22:11:45.791Z,5.80
2024-01-31T22:14:14.146Z,7.83
2024-01-31T22:16:42.229Z,7.03
2024-01-31T22:19:10.418Z,7.83
2024-01-31T22:21:42.951Z,9.20
2024-01-31T22:24:11.625Z,6.13
2024-01-31T22:26:41.391Z,6.50
2024-01-31T22:29:11.426Z,6.27
2024-01-31T22:31:43.970Z,7.10
2024-01-31T22:34:12.908Z,5.87
2024-01-31T22:36:41.081Z,7.33
2024-01-31T22:39:18.142Z,7.40
2024-01-31T22:41:47.293Z,8.27
2024-01-31T22:44:16.776Z,8.47
2024-01-31T22:46:45.319Z,6.97
2024-01-31T22:49:14.023Z,7.00
2024-01-31T22:51:42.252Z,6.00
2024-01-31T22:54:10.801Z,6.83
2024-01-31T22:56:38.957Z,8.40
2024-01-31T22:59:06.994Z,7.30
2024-01-31T23:01:36.885Z,5.83
2024-01-31T23:04:05.487Z,7.37
2024-01-31T23:06:34.011Z,7.63
2024-01-31T23:09:02.851Z,6.37
2024-01-31T23:11:32.462Z,7.47
2024-01-31T23:14:01.078Z,6.30
2024-01-31T23:16:30.075Z,7.87
2024-01-31T23:18:59.614Z,9.17
2024-01-31T23:21:28.345Z,7.90
2024-01-31T23:23:56.712Z,9.33
2024-01-31T23:26:26.675Z,9.43
2024-01-31T23:28:55.130Z,6.20
2024-01-31T23:31:23.283Z,10.73
2024-01-31T23:33:51.649Z,6.73
2024-01-31T23:36:21.632Z,8.03
2024-01-31T23:38:49.895Z,7.30
2024-01-31T23:41:18.029Z,7.97
2024-01-31T23:43:46.519Z,7.30
2024-01-31T23:46:21.628Z,8.00
2024-01-31T23:48:52.259Z,6.87
2024-01-31T23:51:22.065Z,8.23
2024-01-31T23:53:50.187Z,7.30
2024-01-31T23:56:23.062Z,7.90
2024-01-31T23:58:51.332Z,7.43
